createdAt,value
2023-03-19T00:01:29.292Z,9.47
2023-03-19T00:03:57.690Z,8.67
2023-03-19T00:06:25.960Z,9.03
2023-03-19T00:08:55.424Z,8.37
2023-03-19T00:11:23.898Z,9.37
2023-03-19T00:13:52.231Z,9.17
2023-03-19T00:16:23.155Z,9.00
2023-03-19T00:18:51.606Z,8.33
2023-03-19T00:21:20.036Z,8.20
2023-03-19T00:23:48.917Z,7.13
2023-03-19T00:26:18.810Z,7.43
2023-03-19T00:28:49.085Z,7.17
2023-03-19T00:31:18.588Z,7.50
2023-03-19T00:33:47.103Z,7.10
2023-03-19T00:36:16.628Z,6.83
2023-03-19T00:38:45.245Z,6.90
2023-03-19T00:41:18.966Z,7.30
2023-03-19T00:43:49.993Z,6.90
2023-03-19T00:46:18.490Z,6.77
2023-03-19T00:48:48.778Z,7.10
2023-03-19T00:51:17.969Z,7.23
2023-03-19T00:53:46.372Z,7.63
2023-03-19T00:56:21.368Z,7.33
2023-03-19T00:58:51.306Z,8.00
2023-03-19T01:01:19.981Z,7.30
2023-03-19T01:03:48.765Z,8.03
2023-03-19T01:06:17.018Z,7.07
2023-03-19T01:08:45.540Z,7.50
2023-03-19T01:11:17.344Z,6.63
2023-03-19T01:13:48.285Z,6.77
2023-03-19T01:16:18.162Z,6.77
2023-03-19T01:18:46.788Z,5.87
2023-03-19T01:21:16.207Z,5.87
2023-03-19T01:23:44.416Z,6.30
2023-03-19T01:26:13.208Z,5.93
2023-03-19T01:28:46.934Z,6.40
2023-03-19T01:31:15.256Z,6.00
2023-03-19T01:33:45.252Z,6.20
2023-03-19T01:36:16.029Z,6.57
2023-03-19T01:38:44.409Z,6.20
2023-03-19T01:41:13.086Z,7.03
2023-03-19T01:43:41.638Z,7.67
2023-03-19T01:46:22.998Z,7.07
2023-03-19T01:48:55.619Z,7.53
2023-03-19T01:51:31.496Z,7.33
2023-03-19T01:54:02.937Z,7.03
2023-03-19T01:56:34.208Z,6.83
2023-03-19T01:59:08.294Z,7.13
2023-03-19T02:01:43.798Z,7.23
2023-03-19T02:04:15.531Z,6.90
2023-03-19T02:06:45.805Z,7.40
2023-03-19T02:09:16.261Z,8.27
2023-03-19T02:11:44.673Z,8.70
2023-03-19T02:14:13.817Z,7.33
2023-03-19T02:16:43.491Z,7.27
2023-03-19T02:19:18.577Z,7.60
2023-03-19T02:21:46.927Z,8.23
2023-03-19T02:24:18.885Z,7.80
2023-03-19T02:26:50.214Z,8.67
2023-03-19T02:29:18.436Z,8.33
2023-03-19T02:31:46.578Z,9.07
2023-03-19T02:34:37.432Z,10.27
2023-03-19T02:37:12.683Z,9.37
2023-03-19T02:39:49.595Z,9.57
2023-03-19T02:42:20.978Z,10.07
2023-03-19T02:44:49.630Z,9.53
2023-03-19T02:47:18.291Z,8.43
2023-03-19T02:49:47.045Z,8.57
2023-03-19T02:52:15.780Z,8.00
2023-03-19T02:54:44.268Z,7.73
2023-03-19T02:57:14.059Z,8.20
2023-03-19T02:59:43.930Z,7.70
2023-03-19T03:02:12.515Z,8.33
2023-03-19T03:04:40.952Z,8.20
2023-03-19T03:07:09.983Z,8.63
2023-03-19T03:09:38.087Z,7.73
2023-03-19T03:12:07.585Z,8.30
2023-03-19T03:14:36.406Z,8.23
2023-03-19T03:17:08.637Z,8.20
2023-03-19T03:19:36.966Z,8.07
2023-03-19T03:22:05.787Z,8.00
2023-03-19T03:24:35.633Z,8.07
2023-03-19T03:27:07.846Z,8.37
2023-03-19T03:29:36.950Z,9.07
2023-03-19T03:32:07.340Z,8.10
2023-03-19T03:34:35.780Z,7.83
2023-03-19T03:37:03.868Z,8.20
2023-03-19T03:39:32.167Z,7.77
2023-03-19T03:42:00.947Z,8.17
2023-03-19T03:44:29.382Z,8.43
2023-03-19T03:46:58.019Z,8.47
2023-03-19T03:49:29.560Z,8.37
2023-03-19T03:51:57.974Z,7.87
2023-03-19T03:54:28.491Z,8.57
2023-03-19T03:56:56.820Z,8.37
2023-03-19T03:59:25.605Z,8.20
2023-03-19T04:01:54.324Z,7.73
2023-03-19T04:04:22.884Z,8.03
2023-03-19T04:06:52.798Z,8.13
2023-03-19T04:09:20.805Z,8.30
2023-03-19T04:11:51.374Z,8.13
2023-03-19T04:14:19.831Z,7.97
2023-03-19T04:16:48.493Z,8.40
2023-03-19T04:19:17.156Z,8.10
2023-03-19T04:21:46.104Z,8.40
2023-03-19T04:24:16.003Z,9.00
2023-03-19T04:26:44.284Z,8.70
2023-03-19T04:29:12.776Z,7.97
2023-03-19T04:31:40.970Z,8.40
2023-03-19T04:34:09.392Z,7.93
2023-03-19T04:36:39.006Z,8.10
2023-03-19T04:39:07.494Z,8.57
2023-03-19T04:41:37.730Z,8.70
2023-03-19T04:44:06.083Z,8.20
2023-03-19T04:46:34.152Z,8.83
2023-03-19T04:49:02.519Z,7.97
2023-03-19T04:51:31.064Z,9.37
2023-03-19T04:54:00.216Z,9.20
2023-03-19T04:56:28.675Z,10.13
2023-03-19T04:58:58.356Z,9.30
2023-03-19T05:01:26.592Z,8.93
2023-03-19T05:03:59.509Z,10.30
2023-03-19T05:06:28.625Z,8.47
2023-03-19T05:08:57.575Z,8.63
2023-03-19T05:11:26.203Z,8.43
2023-03-19T05:13:54.486Z,7.50
2023-03-19T05:16:24.102Z,8.30
2023-03-19T05:18:53.334Z,8.20
2023-03-19T05:21:21.651Z,8.23
2023-03-19T05:23:52.913Z,8.40
2023-03-19T05:26:21.789Z,8.43
2023-03-19T05:28:50.418Z,8.70
2023-03-19T05:31:18.566Z,8.50
2023-03-19T05:33:49.708Z,9.37
2023-03-19T05:36:19.307Z,8.40
2023-03-19T05:38:48.028Z,7.83
2023-03-19T05:41:18.905Z,8.50
2023-03-19T05:43:46.914Z,8.33
2023-03-19T05:46:15.216Z,8.53
2023-03-19T05:48:43.697Z,8.53
2023-03-19T05:51:13.177Z,8.63
2023-03-19T05:53:41.248Z,8.77
2023-03-19T05:56:09.579Z,8.23
2023-03-19T05:58:37.948Z,8.47
2023-03-19T06:01:07.192Z,7.40
2023-03-19T06:03:35.443Z,7.60
2023-03-19T06:06:03.904Z,7.37
2023-03-19T06:08:33.787Z,8.30
2023-03-19T06:11:02.224Z,7.97
2023-03-19T06:13:30.722Z,8.33
2023-03-19T06:15:59.130Z,8.23
2023-03-19T06:18:27.485Z,8.00
2023-03-19T06:20:57.387Z,9.10
2023-03-19T06:23:25.413Z,9.13
2023-03-19T06:25:55.332Z,9.83
2023-03-19T06:28:23.643Z,12.57
2023-03-19T06:30:51.989Z,12.83
2023-03-19T06:33:20.062Z,10.43
2023-03-19T06:35:48.825Z,9.43
2023-03-19T06:38:17.268Z,8.73
2023-03-19T06:40:45.901Z,8.53
2023-03-19T06:43:16.221Z,7.67
2023-03-19T06:45:44.365Z,8.10
2023-03-19T06:48:14.628Z,8.27
2023-03-19T06:50:43.143Z,7.80
2023-03-19T06:53:11.438Z,7.50
2023-03-19T06:55:40.315Z,8.10
2023-03-19T06:58:08.440Z,7.50
2023-03-19T07:00:38.347Z,7.87
2023-03-19T07:03:07.608Z,7.70
2023-03-19T07:05:36.062Z,7.10
2023-03-19T07:08:04.498Z,7.60
2023-03-19T07:10:33.348Z,7.27
2023-03-19T07:13:03.006Z,7.40
2023-03-19T07:15:31.122Z,7.70
2023-03-19T07:18:02.121Z,7.93
2023-03-19T07:20:30.749Z,7.90
2023-03-19T07:22:58.983Z,7.37
2023-03-19T07:25:27.619Z,7.37
2023-03-19T07:27:57.470Z,7.67
2023-03-19T07:30:25.887Z,7.83
2023-03-19T07:32:54.291Z,8.43
2023-03-19T07:35:24.339Z,8.20
2023-03-19T07:37:52.765Z,7.67
2023-03-19T07:40:22.980Z,8.43
2023-03-19T07:42:51.325Z,8.27
2023-03-19T07:45:19.633Z,8.10
2023-03-19T07:47:50.231Z,8.40
2023-03-19T07:50:20.811Z,8.30
2023-03-19T07:52:51.807Z,7.87
2023-03-19T07:55:24.193Z,7.83
2023-03-19T07:57:52.633Z,8.00
2023-03-19T08:00:21.422Z,8.30
2023-03-19T08:02:49.896Z,7.97
2023-03-19T08:05:18.530Z,8.30
2023-03-19T08:07:47.719Z,7.40
2023-03-19T08:10:18.033Z,8.07
2023-03-19T08:12:46.501Z,7.77
2023-03-19T08:15:16.093Z,7.30
2023-03-19T08:17:44.490Z,7.40
2023-03-19T08:20:16.499Z,7.43
2023-03-19T08:22:45.243Z,7.87
2023-03-19T08:25:13.825Z,7.97
2023-03-19T08:27:43.649Z,8.33
2023-03-19T08:30:13.700Z,7.80
2023-03-19T08:32:44.608Z,8.00
2023-03-19T08:35:13.326Z,8.20
2023-03-19T08:37:42.510Z,8.00
2023-03-19T08:40:12.196Z,8.20
2023-03-19T08:42:45.095Z,7.97
2023-03-19T08:45:17.106Z,8.37
2023-03-19T08:47:46.805Z,7.93
2023-03-19T08:50:15.157Z,9.10
2023-03-19T08:52:43.920Z,8.10
2023-03-19T08:55:14.922Z,8.20
2023-03-19T08:57:50.538Z,8.50
2023-03-19T09:00:23.598Z,7.93
2023-03-19T09:02:52.370Z,8.87
2023-03-19T09:05:22.908Z,7.73
2023-03-19T09:07:53.780Z,7.40
2023-03-19T09:10:26.022Z,8.00
2023-03-19T09:12:57.145Z,8.00
2023-03-19T09:15:35.170Z,7.77
2023-03-19T09:18:06.684Z,7.90
2023-03-19T09:20:39.306Z,7.73
2023-03-19T09:23:08.190Z,6.97
2023-03-19T09:25:39.930Z,7.03
2023-03-19T09:28:15.374Z,7.57
2023-03-19T09:30:48.479Z,7.53
2023-03-19T09:33:20.456Z,7.47
2023-03-19T09:35:52.583Z,7.20
2023-03-19T09:38:21.158Z,7.57
2023-03-19T09:41:03.842Z,6.80
2023-03-19T09:43:49.692Z,7.03
2023-03-19T09:46:25.498Z,7.03
2023-03-19T09:48:58.495Z,6.63
2023-03-19T09:51:31.759Z,6.87
2023-03-19T09:54:05.517Z,7.33
2023-03-19T09:56:36.103Z,7.37
2023-03-19T09:59:04.957Z,7.93
2023-03-19T10:01:37.576Z,6.80
2023-03-19T10:04:37.939Z,6.97
2023-03-19T10:07:18.393Z,6.93
2023-03-19T10:10:00.321Z,7.50
2023-03-19T10:12:42.193Z,6.67
2023-03-19T10:15:28.037Z,7.47
2023-03-19T10:18:04.475Z,7.07
2023-03-19T10:20:46.749Z,6.67
2023-03-19T10:23:40.642Z,6.23
2023-03-19T10:26:16.366Z,6.77
2023-03-19T10:28:47.936Z,6.60
2023-03-19T10:31:28.403Z,6.30
2023-03-19T10:34:13.279Z,6.23
2023-03-19T10:36:42.008Z,5.70
2023-03-19T10:39:12.869Z,6.20
2023-03-19T10:41:51.339Z,5.87
2023-03-19T10:44:32.746Z,5.93
2023-03-19T10:47:10.696Z,5.33
2023-03-19T10:49:40.862Z,5.30
2023-03-19T10:52:21.154Z,5.47
2023-03-19T10:54:49.399Z,4.57
2023-03-19T10:57:27.778Z,3.50
2023-03-19T10:59:56.591Z,3.47
2023-03-19T11:02:31.748Z,3.70
2023-03-19T11:05:25.238Z,6.03
2023-03-19T11:07:58.248Z,12.73
2023-03-19T11:10:30.042Z,35.30
2023-03-19T11:13:00.749Z,11.03
2023-03-19T11:15:36.200Z,5.33
2023-03-19T11:18:09.883Z,4.23
2023-03-19T11:20:41.779Z,4.20
2023-03-19T11:23:17.200Z,13.30
2023-03-19T11:25:52.594Z,4.07
2023-03-19T11:28:26.265Z,6.43
2023-03-19T11:31:00.953Z,8.13
2023-03-19T11:33:44.989Z,8.10
2023-03-19T11:36:22.661Z,3.50
2023-03-19T11:39:06.232Z,3.57
2023-03-19T11:41:53.935Z,3.30
2023-03-19T11:44:31.532Z,3.00
2023-03-19T11:47:17.809Z,3.00
2023-03-19T11:50:03.528Z,3.07
2023-03-19T11:52:41.823Z,2.90
2023-03-19T11:55:23.708Z,2.50
2023-03-19T11:58:21.607Z,3.37
2023-03-19T12:00:52.583Z,3.60
2023-03-19T12:03:57.151Z,7.70
2023-03-19T12:06:39.009Z,5.07
2023-03-19T12:09:14.271Z,3.93
2023-03-19T12:11:49.830Z,2.87
2023-03-19T12:14:30.439Z,3.20
2023-03-19T12:17:23.072Z,3.87
2023-03-19T12:20:16.084Z,3.13
2023-03-19T12:22:57.391Z,3.50
2023-03-19T12:25:57.511Z,3.60
2023-03-19T12:28:34.293Z,4.90
2023-03-19T12:31:29.516Z,4.70
2023-03-19T12:34:15.024Z,4.20
2023-03-19T12:36:51.008Z,3.60
2023-03-19T12:39:23.086Z,3.77
2023-03-19T12:41:53.902Z,4.10
2023-03-19T12:44:28.525Z,4.10
2023-03-19T12:47:02.333Z,3.13
2023-03-19T12:49:36.851Z,3.10
2023-03-19T12:52:14.343Z,3.10
2023-03-19T12:54:46.853Z,3.07
2023-03-19T12:57:23.948Z,2.90
2023-03-19T13:00:02.572Z,2.83
2023-03-19T13:02:34.799Z,2.73
2023-03-19T13:05:10.725Z,2.40
2023-03-19T13:07:50.807Z,2.63
2023-03-19T13:10:22.321Z,4.37
2023-03-19T13:12:52.739Z,2.77
2023-03-19T13:15:28.787Z,3.57
2023-03-19T13:18:07.605Z,14.63
2023-03-19T13:21:05.135Z,2.90
2023-03-19T13:23:36.210Z,2.80
2023-03-19T13:26:09.204Z,4.83
2023-03-19T13:28:39.301Z,2.90
2023-03-19T13:31:21.593Z,2.77
2023-03-19T13:33:55.935Z,2.70
2023-03-19T13:36:28.986Z,2.30
2023-03-19T13:39:01.430Z,2.17
2023-03-19T13:41:59.562Z,2.40
2023-03-19T13:44:36.588Z,1.80
2023-03-19T13:47:44.750Z,1.90
2023-03-19T13:50:28.892Z,4.20
2023-03-19T13:53:23.527Z,1.90
2023-03-19T13:55:57.312Z,1.50
2023-03-19T13:58:44.480Z,1.60
2023-03-19T14:01:37.255Z,1.90
2023-03-19T14:04:20.141Z,1.70
2023-03-19T14:06:50.693Z,1.97
2023-03-19T14:09:39.684Z,1.83
2023-03-19T14:12:24.041Z,2.20
2023-03-19T14:14:56.258Z,1.60
2023-03-19T14:17:28.752Z,1.60
2023-03-19T14:20:09.238Z,1.60
2023-03-19T14:22:40.640Z,0.90
2023-03-19T14:25:19.290Z,0.90
2023-03-19T14:27:49.916Z,0.70
2023-03-19T14:30:34.430Z,0.90
2023-03-19T14:33:08.408Z,1.00
2023-03-19T14:35:43.064Z,0.80
2023-03-19T14:38:15.813Z,0.80
2023-03-19T14:40:48.733Z,0.87
2023-03-19T14:43:30.270Z,0.97
2023-03-19T14:46:01.743Z,0.80
2023-03-19T14:49:09.839Z,0.70
2023-03-19T14:52:14.760Z,0.80
2023-03-19T14:54:49.333Z,0.50
2023-03-19T14:57:20.052Z,0.70
2023-03-19T14:59:51.241Z,0.70
2023-03-19T15:02:36.383Z,0.87
2023-03-19T15:05:07.819Z,0.70
2023-03-19T15:07:41.726Z,0.70
2023-03-19T15:10:17.457Z,0.73
2023-03-19T15:13:08.619Z,0.80
2023-03-19T15:15:44.711Z,0.80
2023-03-19T15:18:16.666Z,0.60
2023-03-19T15:20:47.655Z,0.90
2023-03-19T15:23:27.306Z,0.50
2023-03-19T15:26:00.491Z,0.70
2023-03-19T15:28:30.872Z,0.80
2023-03-19T15:31:14.153Z,0.57
2023-03-19T15:33:53.040Z,0.80
2023-03-19T15:36:30.325Z,1.30
2023-03-19T15:39:04.341Z,1.40
2023-03-19T15:41:40.412Z,1.00
2023-03-19T15:44:15.181Z,1.20
2023-03-19T15:46:46.000Z,0.80
2023-03-19T15:49:19.076Z,1.00
2023-03-19T15:51:56.334Z,0.53
2023-03-19T15:54:27.527Z,0.70
2023-03-19T15:56:57.075Z,0.50
2023-03-19T15:59:30.183Z,0.60
2023-03-19T16:02:01.190Z,0.73
2023-03-19T16:04:55.891Z,1.47
2023-03-19T16:07:26.339Z,4.70
2023-03-19T16:09:57.634Z,1.57
2023-03-19T16:12:42.675Z,2.97
2023-03-19T16:15:36.920Z,0.60
2023-03-19T16:18:24.137Z,1.30
2023-03-19T16:21:08.893Z,1.10
2023-03-19T16:23:41.415Z,0.70
2023-03-19T16:26:22.542Z,0.53
2023-03-19T16:28:59.493Z,0.70
2023-03-19T16:31:32.381Z,0.70
2023-03-19T16:34:01.650Z,0.60
2023-03-19T16:36:35.345Z,0.60
2023-03-19T16:39:25.308Z,0.77
2023-03-19T16:42:30.230Z,0.87
2023-03-19T16:45:00.389Z,0.70
2023-03-19T16:47:28.724Z,1.07
2023-03-19T16:49:58.775Z,5.53
2023-03-19T16:52:27.267Z,3.43
2023-03-19T16:54:55.867Z,3.30
2023-03-19T16:57:25.965Z,1.23
2023-03-19T16:59:54.487Z,0.80
2023-03-19T17:02:24.039Z,1.40
2023-03-19T17:04:52.393Z,0.77
2023-03-19T17:07:20.890Z,0.87
2023-03-19T17:09:49.243Z,0.80
2023-03-19T17:12:19.144Z,1.00
2023-03-19T17:14:51.344Z,0.90
2023-03-19T17:17:22.105Z,0.90
2023-03-19T17:19:51.631Z,0.87
2023-03-19T17:22:20.064Z,0.90
2023-03-19T17:24:48.607Z,0.90
2023-03-19T17:27:16.990Z,0.90
2023-03-19T17:29:45.276Z,1.00
2023-03-19T17:32:20.868Z,1.00
2023-03-19T17:34:49.554Z,1.00
2023-03-19T17:37:19.370Z,1.20
2023-03-19T17:39:48.234Z,1.10
2023-03-19T17:42:21.105Z,1.10
2023-03-19T17:44:52.512Z,1.13
2023-03-19T17:47:23.844Z,1.07
2023-03-19T17:49:52.634Z,1.03
2023-03-19T17:52:23.616Z,1.10
2023-03-19T17:54:51.693Z,1.20
2023-03-19T17:57:20.000Z,1.10
2023-03-19T17:59:50.402Z,1.37
2023-03-19T18:02:36.966Z,1.40
2023-03-19T18:05:07.637Z,1.77
2023-03-19T18:07:36.316Z,1.50
2023-03-19T18:10:04.739Z,1.83
2023-03-19T18:12:32.950Z,2.40
2023-03-19T18:15:03.413Z,2.23
2023-03-19T18:17:34.476Z,2.03
2023-03-19T18:20:02.763Z,2.47
2023-03-19T18:22:31.673Z,2.83
2023-03-19T18:25:00.203Z,2.83
2023-03-19T18:27:28.478Z,2.83
2023-03-19T18:29:56.868Z,2.80
2023-03-19T18:32:30.151Z,3.50
2023-03-19T18:35:00.127Z,3.00
2023-03-19T18:37:29.111Z,2.57
2023-03-19T18:39:57.213Z,3.43
2023-03-19T18:42:26.610Z,3.90
2023-03-19T18:44:57.067Z,4.30
2023-03-19T18:47:25.810Z,4.40
2023-03-19T18:49:57.857Z,5.50
2023-03-19T18:52:31.408Z,3.43
2023-03-19T18:55:02.260Z,2.90
2023-03-19T18:57:30.668Z,3.97
2023-03-19T19:00:00.687Z,5.63
2023-03-19T19:02:37.598Z,5.50
2023-03-19T19:05:09.076Z,6.23
2023-03-19T19:07:39.493Z,8.10
2023-03-19T19:10:09.391Z,7.37
2023-03-19T19:12:39.557Z,4.77
2023-03-19T19:15:24.433Z,7.20
2023-03-19T19:17:54.791Z,5.03
2023-03-19T19:20:25.380Z,3.90
2023-03-19T19:22:57.972Z,7.50
2023-03-19T19:25:29.405Z,8.07
2023-03-19T19:28:00.718Z,6.30
2023-03-19T19:30:30.136Z,5.30
2023-03-19T19:32:58.922Z,4.10
2023-03-19T19:35:29.644Z,2.23
2023-03-19T19:37:59.827Z,2.77
2023-03-19T19:40:32.304Z,1.97
2023-03-19T19:43:01.477Z,2.00
2023-03-19T19:45:32.586Z,1.70
2023-03-19T19:48:01.493Z,1.90
2023-03-19T19:50:30.088Z,1.90
2023-03-19T19:53:04.450Z,1.87
2023-03-19T19:55:32.708Z,1.80
2023-03-19T19:58:01.089Z,2.70
2023-03-19T20:00:31.505Z,2.80
2023-03-19T20:03:04.411Z,2.60
2023-03-19T20:05:35.676Z,2.67
2023-03-19T20:08:06.647Z,2.50
2023-03-19T20:10:36.036Z,2.67
2023-03-19T20:13:04.571Z,4.70
2023-03-19T20:15:35.141Z,5.40
2023-03-19T20:18:06.809Z,2.40
2023-03-19T20:20:35.288Z,2.40
2023-03-19T20:23:06.885Z,2.00
2023-03-19T20:25:38.499Z,1.90
2023-03-19T20:28:08.947Z,2.40
2023-03-19T20:30:42.474Z,2.37
2023-03-19T20:33:13.719Z,2.33
2023-03-19T20:35:43.042Z,2.40
2023-03-19T20:38:13.055Z,2.93
2023-03-19T20:40:45.516Z,4.40
2023-03-19T20:43:27.943Z,3.83
2023-03-19T20:45:58.193Z,2.90
2023-03-19T20:48:29.152Z,3.57
2023-03-19T20:50:58.227Z,3.13
2023-03-19T20:53:26.961Z,3.20
2023-03-19T20:56:00.290Z,3.23
2023-03-19T20:58:31.537Z,9.60
2023-03-19T21:01:03.005Z,7.13
2023-03-19T21:03:33.026Z,8.87
2023-03-19T21:06:09.046Z,3.20
2023-03-19T21:08:41.148Z,2.73
2023-03-19T21:11:17.825Z,5.47
2023-03-19T21:13:48.193Z,4.20
2023-03-19T21:16:23.643Z,3.10
2023-03-19T21:18:54.346Z,3.33
2023-03-19T21:21:29.847Z,3.07
2023-03-19T21:24:04.165Z,3.30
2023-03-19T21:26:38.723Z,3.73
2023-03-19T21:29:10.635Z,3.87
2023-03-19T21:31:39.401Z,3.83
2023-03-19T21:34:12.444Z,3.70
2023-03-19T21:36:41.197Z,3.37
2023-03-19T21:39:11.875Z,3.53
2023-03-19T21:41:42.338Z,3.37
2023-03-19T21:44:15.522Z,4.70
2023-03-19T21:46:47.017Z,3.43
2023-03-19T21:49:16.050Z,3.23
2023-03-19T21:51:44.515Z,3.47
2023-03-19T21:54:12.898Z,3.10
2023-03-19T21:56:45.896Z,3.37
2023-03-19T21:59:18.393Z,3.30
2023-03-19T22:01:50.340Z,3.73
2023-03-19T22:04:19.521Z,3.90
2023-03-19T22:06:49.277Z,3.63
2023-03-19T22:09:17.803Z,3.83
2023-03-19T22:11:47.537Z,3.90
2023-03-19T22:14:19.416Z,4.27
2023-03-19T22:16:52.575Z,3.73
2023-03-19T22:19:21.664Z,4.30
2023-03-19T22:21:50.335Z,4.20
2023-03-19T22:24:19.859Z,4.43
2023-03-19T22:26:56.505Z,5.73
2023-03-19T22:29:26.526Z,7.27
2023-03-19T22:31:57.397Z,6.90
2023-03-19T22:34:28.369Z,6.30
2023-03-19T22:36:59.651Z,5.77
2023-03-19T22:39:29.660Z,6.20
2023-03-19T22:41:59.216Z,5.63
2023-03-19T22:44:29.299Z,5.90
2023-03-19T22:46:58.892Z,5.73
2023-03-19T22:49:28.261Z,5.13
2023-03-19T22:51:57.793Z,5.77
2023-03-19T22:54:30.715Z,5.60
2023-03-19T22:57:01.563Z,5.47
2023-03-19T22:59:29.858Z,5.40
2023-03-19T23:01:58.645Z,5.37
2023-03-19T23:04:29.674Z,5.40
2023-03-19T23:07:00.323Z,6.13
2023-03-19T23:09:30.726Z,5.63
2023-03-19T23:12:01.977Z,5.37
2023-03-19T23:14:31.501Z,5.10
2023-03-19T23:17:03.715Z,4.50
2023-03-19T23:19:34.023Z,7.00
2023-03-19T23:22:05.274Z,5.77
2023-03-19T23:24:34.051Z,5.13
2023-03-19T23:27:04.619Z,4.90
2023-03-19T23:29:36.184Z,4.70
2023-03-19T23:32:05.121Z,5.20
2023-03-19T23:34:42.577Z,5.10
2023-03-19T23:37:19.741Z,4.73
2023-03-19T23:39:48.606Z,4.57
2023-03-19T23:42:27.733Z,4.53
2023-03-19T23:44:59.271Z,5.70
2023-03-19T23:47:28.467Z,5.53
2023-03-19T23:49:57.178Z,5.03
2023-03-19T23:52:25.544Z,5.30
2023-03-19T23:54:55.345Z,5.57
2023-03-19T23:57:26.774Z,5.07
2023-03-19T23:59:55.482Z,5.27
